PWSweather.com
Personal Weather Stations
Station Observations
WXGLH1124
Southern Oaks, Indianapolis, IN 46217

Southern OaksIndianapolis, IN 46217

Lat: 39.65113, Lon: -86.16866

Elevation: 720

Station Type: Vantage Pro2

High Low Average
Temperature 7.1°F-13.8°C -6.1°F-21.2°C 0.0°F-17.8°C
Dew Point -0.4°F-18.0°C -12.0°F-24.4°C -7.5°F-21.9°C
Winds 7.0 mph 11.3 kmh Calm Calm 2.0 mph NW3.2 kmh NW
Wind Gusts 10.0 mph16.1 kmh -- 3.0 mph4.8 kmh
Humidity 80% 55% 70%
Pressure 30.85 in1044.7 mb 30.69 in1039.3 mb -
Precipitation 0.00 in0.0 mm - -
Hour Temp Dew Point Humidity Winds Wind Gusts Pressure Precip Precip Rate Daily Precip Total
12:00 AM 3.9°F-15.6°C -1.2°F-18.4°C 79% Calm Calm -- 30.69 in1039.3 mb 0.00 in0.0 mm 0.00 in0.0 mm 0.00 in0.0 mm
12:05 AM 3.9°F-15.6°C -1.2°F-18.4°C 79% 1.0 mph NW1.6 kmh NW 1.0 mph1.6 kmh 30.69 in1039.3 mb 0.00 in0.0 mm 0.00 in0.0 mm 0.00 in0.0 mm
12:10 AM 4.0°F-15.6°C -1.1°F-18.4°C 79% 2.0 mph NW3.2 kmh NW 2.0 mph3.2 kmh 30.68 in1038.9 mb 0.00 in0.0 mm 0.00 in0.0 mm 0.00 in0.0 mm
12:15 AM 4.0°F-15.6°C -1.1°F-18.4°C 79% Calm Calm 2.0 mph3.2 kmh 30.69 in1039.3 mb 0.00 in0.0 mm 0.00 in0.0 mm 0.00 in0.0 mm
12:20 AM 4.1°F-15.5°C -1.0°F-18.3°C 79% Calm Calm -- 30.68 in1038.9 mb 0.00 in0.0 mm 0.00 in0.0 mm 0.00 in0.0 mm
12:25 AM 4.2°F-15.4°C -0.9°F-18.3°C 79% 2.0 mph NW3.2 kmh NW 3.0 mph4.8 kmh 30.69 in1039.3 mb 0.00 in0.0 mm 0.00 in0.0 mm 0.00 in0.0 mm
12:30 AM 4.2°F-15.4°C -0.9°F-18.3°C 79% Calm Calm 1.0 mph1.6 kmh 30.69 in1039.3 mb 0.00 in0.0 mm 0.00 in0.0 mm 0.00 in0.0 mm
12:34 AM 4.4°F-15.3°C -0.7°F-18.2°C 79% 2.0 mph NW3.2 kmh NW 2.0 mph3.2 kmh 30.69 in1039.3 mb 0.00 in0.0 mm 0.00 in0.0 mm 0.00 in0.0 mm
12:40 AM 4.4°F-15.3°C -0.7°F-18.2°C 79% 2.0 mph NW3.2 kmh NW 5.0 mph8.0 kmh 30.69 in1039.3 mb 0.00 in0.0 mm 0.00 in0.0 mm 0.00 in0.0 mm
12:45 AM 4.5°F-15.3°C -0.6°F-18.1°C 79% 1.0 mph NW1.6 kmh NW 2.0 mph3.2 kmh 30.69 in1039.3 mb 0.00 in0.0 mm 0.00 in0.0 mm 0.00 in0.0 mm
12:50 AM 4.6°F-15.2°C -0.5°F-18.1°C 79% 2.0 mph NW3.2 kmh NW 3.0 mph4.8 kmh 30.69 in1039.3 mb 0.00 in0.0 mm 0.00 in0.0 mm 0.00 in0.0 mm
12:55 AM 4.6°F-15.2°C -0.5°F-18.1°C 79% 1.0 mph NW1.6 kmh NW 3.0 mph4.8 kmh 30.69 in1039.3 mb 0.00 in0.0 mm 0.00 in0.0 mm 0.00 in0.0 mm
01:00 AM 4.7°F-15.2°C -0.4°F-18.0°C 79% 1.0 mph NW1.6 kmh NW 1.0 mph1.6 kmh 30.69 in1039.3 mb 0.00 in0.0 mm 0.00 in0.0 mm 0.00 in0.0 mm
01:05 AM 4.7°F-15.2°C -0.4°F-18.0°C 79% Calm Calm 1.0 mph1.6 kmh 30.69 in1039.3 mb 0.00 in0.0 mm 0.00 in0.0 mm 0.00 in0.0 mm
01:10 AM 4.7°F-15.2°C -0.6°F-18.1°C 78% Calm Calm 2.0 mph3.2 kmh 30.69 in1039.3 mb 0.00 in0.0 mm 0.00 in0.0 mm 0.00 in0.0 mm
01:14 AM 4.5°F-15.3°C -0.8°F-18.2°C 78% Calm Calm 1.0 mph1.6 kmh 30.69 in1039.3 mb 0.00 in0.0 mm 0.00 in0.0 mm 0.00 in0.0 mm
01:20 AM 4.4°F-15.3°C -0.9°F-18.3°C 78% 2.0 mph NW3.2 kmh NW 3.0 mph4.8 kmh 30.69 in1039.3 mb 0.00 in0.0 mm 0.00 in0.0 mm 0.00 in0.0 mm
01:25 AM 4.2°F-15.4°C -1.1°F-18.4°C 78% Calm Calm 2.0 mph3.2 kmh 30.69 in1039.3 mb 0.00 in0.0 mm 0.00 in0.0 mm 0.00 in0.0 mm
01:30 AM 4.1°F-15.5°C -1.2°F-18.4°C 78% 1.0 mph NW1.6 kmh NW 2.0 mph3.2 kmh 30.69 in1039.3 mb 0.00 in0.0 mm 0.00 in0.0 mm 0.00 in0.0 mm
01:35 AM 4.0°F-15.6°C -1.3°F-18.5°C 78% 5.0 mph NW8.0 kmh NW 5.0 mph8.0 kmh 30.69 in1039.3 mb 0.00 in0.0 mm 0.00 in0.0 mm 0.00 in0.0 mm
01:40 AM 3.8°F-15.7°C -1.5°F-18.6°C 78% 1.0 mph NNW1.6 kmh NNW 2.0 mph3.2 kmh 30.70 in1039.6 mb 0.00 in0.0 mm 0.00 in0.0 mm 0.00 in0.0 mm
01:45 AM 3.7°F-15.7°C -1.6°F-18.7°C 78% 3.0 mph NW4.8 kmh NW 4.0 mph6.4 kmh 30.70 in1039.6 mb 0.00 in0.0 mm 0.00 in0.0 mm 0.00 in0.0 mm
01:50 AM 3.5°F-15.8°C -2.1°F-18.9°C 77% Calm Calm 2.0 mph3.2 kmh 30.70 in1039.6 mb 0.00 in0.0 mm 0.00 in0.0 mm 0.00 in0.0 mm
01:55 AM 3.3°F-15.9°C -2.3°F-19.1°C 77% 1.0 mph NW1.6 kmh NW 2.0 mph3.2 kmh 30.70 in1039.6 mb 0.00 in0.0 mm 0.00 in0.0 mm 0.00 in0.0 mm
02:00 AM 3.0°F-16.1°C -2.6°F-19.2°C 77% 1.0 mph NW1.6 kmh NW 1.0 mph1.6 kmh 30.70 in1039.6 mb 0.00 in0.0 mm 0.00 in0.0 mm 0.00 in0.0 mm
02:05 AM 2.8°F-16.2°C -2.8°F-19.3°C 77% 1.0 mph NW1.6 kmh NW 2.0 mph3.2 kmh 30.70 in1039.6 mb 0.00 in0.0 mm 0.00 in0.0 mm 0.00 in0.0 mm
02:10 AM 2.6°F-16.3°C -3.0°F-19.4°C 77% Calm Calm 2.0 mph3.2 kmh 30.70 in1039.6 mb 0.00 in0.0 mm 0.00 in0.0 mm 0.00 in0.0 mm
02:15 AM 2.5°F-16.4°C -2.8°F-19.3°C 78% 1.0 mph NW1.6 kmh NW 1.0 mph1.6 kmh 30.70 in1039.6 mb 0.00 in0.0 mm 0.00 in0.0 mm 0.00 in0.0 mm
02:20 AM 2.3°F-16.5°C -3.3°F-19.6°C 77% Calm Calm 2.0 mph3.2 kmh 30.70 in1039.6 mb 0.00 in0.0 mm 0.00 in0.0 mm 0.00 in0.0 mm
02:25 AM 2.1°F-16.6°C -3.2°F-19.6°C 78% Calm Calm -- 30.70 in1039.6 mb 0.00 in0.0 mm 0.00 in0.0 mm 0.00 in0.0 mm
02:30 AM 1.9°F-16.7°C -3.4°F-19.7°C 78% 1.0 mph NW1.6 kmh NW 2.0 mph3.2 kmh 30.70 in1039.6 mb 0.00 in0.0 mm 0.00 in0.0 mm 0.00 in0.0 mm
02:35 AM 1.8°F-16.8°C -3.5°F-19.7°C 78% Calm Calm 1.0 mph1.6 kmh 30.70 in1039.6 mb 0.00 in0.0 mm 0.00 in0.0 mm 0.00 in0.0 mm
02:40 AM 1.7°F-16.8°C -3.6°F-19.8°C 78% 1.0 mph NW1.6 kmh NW 1.0 mph1.6 kmh 30.70 in1039.6 mb 0.00 in0.0 mm 0.00 in0.0 mm 0.00 in0.0 mm
02:45 AM 1.6°F-16.9°C -3.7°F-19.8°C 78% 1.0 mph NW1.6 kmh NW 2.0 mph3.2 kmh 30.70 in1039.6 mb 0.00 in0.0 mm 0.00 in0.0 mm 0.00 in0.0 mm
02:50 AM 1.4°F-17.0°C -3.9°F-19.9°C 78% 2.0 mph NW3.2 kmh NW 2.0 mph3.2 kmh 30.71 in1040.0 mb 0.00 in0.0 mm 0.00 in0.0 mm 0.00 in0.0 mm
02:55 AM 1.3°F-17.1°C -3.7°F-19.8°C 79% Calm Calm -- 30.71 in1040.0 mb 0.00 in0.0 mm 0.00 in0.0 mm 0.00 in0.0 mm
03:00 AM 1.2°F-17.1°C -4.1°F-20.1°C 78% Calm Calm -- 30.71 in1040.0 mb 0.00 in0.0 mm 0.00 in0.0 mm 0.00 in0.0 mm
03:05 AM 1.1°F-17.2°C -3.9°F-19.9°C 79% Calm Calm 1.0 mph1.6 kmh 30.71 in1040.0 mb 0.00 in0.0 mm 0.00 in0.0 mm 0.00 in0.0 mm
03:10 AM 1.1°F-17.2°C -3.9°F-19.9°C 79% Calm Calm 2.0 mph3.2 kmh 30.71 in1040.0 mb 0.00 in0.0 mm 0.00 in0.0 mm 0.00 in0.0 mm
03:15 AM 1.0°F-17.2°C -4.0°F-20.0°C 79% Calm Calm 2.0 mph3.2 kmh 30.71 in1040.0 mb 0.00 in0.0 mm 0.00 in0.0 mm 0.00 in0.0 mm
03:19 AM 1.0°F-17.2°C -4.0°F-20.0°C 79% 1.0 mph NW1.6 kmh NW 2.0 mph3.2 kmh 30.71 in1040.0 mb 0.00 in0.0 mm 0.00 in0.0 mm 0.00 in0.0 mm
03:24 AM 1.0°F-17.2°C -4.0°F-20.0°C 79% Calm Calm 1.0 mph1.6 kmh 30.72 in1040.3 mb 0.00 in0.0 mm 0.00 in0.0 mm 0.00 in0.0 mm
03:30 AM 0.9°F-17.3°C -4.1°F-20.1°C 79% Calm Calm -- 30.72 in1040.3 mb 0.00 in0.0 mm 0.00 in0.0 mm 0.00 in0.0 mm
03:35 AM 0.8°F-17.3°C -4.2°F-20.1°C 79% Calm Calm -- 30.72 in1040.3 mb 0.00 in0.0 mm 0.00 in0.0 mm 0.00 in0.0 mm
03:40 AM 0.8°F-17.3°C -4.2°F-20.1°C 79% 1.0 mph N1.6 kmh N 1.0 mph1.6 kmh 30.72 in1040.3 mb 0.00 in0.0 mm 0.00 in0.0 mm 0.00 in0.0 mm
03:45 AM 0.7°F-17.4°C -4.3°F-20.2°C 79% 2.0 mph N3.2 kmh N 2.0 mph3.2 kmh 30.72 in1040.3 mb 0.00 in0.0 mm 0.00 in0.0 mm 0.00 in0.0 mm
03:49 AM 0.7°F-17.4°C -4.3°F-20.2°C 79% 2.0 mph N3.2 kmh N 2.0 mph3.2 kmh 30.72 in1040.3 mb 0.00 in0.0 mm 0.00 in0.0 mm 0.00 in0.0 mm
03:55 AM 0.6°F-17.4°C -4.4°F-20.2°C 79% 2.0 mph N3.2 kmh N 2.0 mph3.2 kmh 30.72 in1040.3 mb 0.00 in0.0 mm 0.00 in0.0 mm 0.00 in0.0 mm
04:00 AM 0.5°F-17.5°C -4.7°F-20.4°C 78% 1.0 mph N1.6 kmh N 1.0 mph1.6 kmh 30.72 in1040.3 mb 0.00 in0.0 mm 0.00 in0.0 mm 0.00 in0.0 mm
04:05 AM 0.4°F-17.6°C -4.8°F-20.4°C 78% 2.0 mph N3.2 kmh N 2.0 mph3.2 kmh 30.72 in1040.3 mb 0.00 in0.0 mm 0.00 in0.0 mm 0.00 in0.0 mm
04:10 AM 0.3°F-17.6°C -4.9°F-20.5°C 78% 1.0 mph N1.6 kmh N 1.0 mph1.6 kmh 30.72 in1040.3 mb 0.00 in0.0 mm 0.00 in0.0 mm 0.00 in0.0 mm
04:15 AM 0.1°F-17.7°C -5.1°F-20.6°C 78% 1.0 mph N1.6 kmh N 2.0 mph3.2 kmh 30.72 in1040.3 mb 0.00 in0.0 mm 0.00 in0.0 mm 0.00 in0.0 mm
04:20 AM 0.1°F-17.7°C -4.9°F-20.5°C 79% Calm Calm 2.0 mph3.2 kmh 30.72 in1040.3 mb 0.00 in0.0 mm 0.00 in0.0 mm 0.00 in0.0 mm
04:25 AM -0.1°F-17.8°C -5.1°F-20.6°C 79% Calm Calm 2.0 mph3.2 kmh 30.72 in1040.3 mb 0.00 in0.0 mm 0.00 in0.0 mm 0.00 in0.0 mm
04:30 AM -0.2°F-17.9°C -5.4°F-20.8°C 78% 1.0 mph N1.6 kmh N 2.0 mph3.2 kmh 30.73 in1040.6 mb 0.00 in0.0 mm 0.00 in0.0 mm 0.00 in0.0 mm
04:35 AM -0.3°F-17.9°C -5.2°F-20.7°C 79% Calm Calm -- 30.73 in1040.6 mb 0.00 in0.0 mm 0.00 in0.0 mm 0.00 in0.0 mm
04:39 AM -0.4°F-18.0°C -5.3°F-20.7°C 79% 1.0 mph N1.6 kmh N 1.0 mph1.6 kmh 30.73 in1040.6 mb 0.00 in0.0 mm 0.00 in0.0 mm 0.00 in0.0 mm
04:45 AM -0.5°F-18.1°C -5.4°F-20.8°C 79% Calm Calm 1.0 mph1.6 kmh 30.73 in1040.6 mb 0.00 in0.0 mm 0.00 in0.0 mm 0.00 in0.0 mm
04:50 AM -0.7°F-18.2°C -5.6°F-20.9°C 79% Calm Calm 1.0 mph1.6 kmh 30.73 in1040.6 mb 0.00 in0.0 mm 0.00 in0.0 mm 0.00 in0.0 mm
04:55 AM -0.8°F-18.2°C -5.7°F-20.9°C 79% Calm Calm 2.0 mph3.2 kmh 30.73 in1040.6 mb 0.00 in0.0 mm 0.00 in0.0 mm 0.00 in0.0 mm
05:00 AM -0.9°F-18.3°C -5.8°F-21.0°C 79% 2.0 mph NNW3.2 kmh NNW 2.0 mph3.2 kmh 30.73 in1040.6 mb 0.00 in0.0 mm 0.00 in0.0 mm 0.00 in0.0 mm
05:05 AM -1.0°F-18.3°C -5.9°F-21.1°C 79% 3.0 mph NNW4.8 kmh NNW 3.0 mph4.8 kmh 30.73 in1040.6 mb 0.00 in0.0 mm 0.00 in0.0 mm 0.00 in0.0 mm
05:10 AM -1.1°F-18.4°C -6.0°F-21.1°C 79% 2.0 mph NNW3.2 kmh NNW 2.0 mph3.2 kmh 30.73 in1040.6 mb 0.00 in0.0 mm 0.00 in0.0 mm 0.00 in0.0 mm
05:15 AM -1.1°F-18.4°C -6.0°F-21.1°C 79% Calm Calm 2.0 mph3.2 kmh 30.73 in1040.6 mb 0.00 in0.0 mm 0.00 in0.0 mm 0.00 in0.0 mm
05:20 AM -1.2°F-18.4°C -5.9°F-21.1°C 80% Calm Calm 2.0 mph3.2 kmh 30.73 in1040.6 mb 0.00 in0.0 mm 0.00 in0.0 mm 0.00 in0.0 mm
05:25 AM -1.3°F-18.5°C -6.0°F-21.1°C 80% 3.0 mph NW4.8 kmh NW 3.0 mph4.8 kmh 30.73 in1040.6 mb 0.00 in0.0 mm 0.00 in0.0 mm 0.00 in0.0 mm
05:30 AM -1.3°F-18.5°C -6.0°F-21.1°C 80% 2.0 mph NW3.2 kmh NW 3.0 mph4.8 kmh 30.73 in1040.6 mb 0.00 in0.0 mm 0.00 in0.0 mm 0.00 in0.0 mm
05:35 AM -1.4°F-18.6°C -6.1°F-21.2°C 80% 1.0 mph NW1.6 kmh NW 2.0 mph3.2 kmh 30.73 in1040.6 mb 0.00 in0.0 mm 0.00 in0.0 mm 0.00 in0.0 mm
05:39 AM -1.5°F-18.6°C -6.4°F-21.3°C 79% Calm Calm 2.0 mph3.2 kmh 30.73 in1040.6 mb 0.00 in0.0 mm 0.00 in0.0 mm 0.00 in0.0 mm
05:45 AM -1.6°F-18.7°C -6.5°F-21.4°C 79% Calm Calm 1.0 mph1.6 kmh 30.73 in1040.6 mb 0.00 in0.0 mm 0.00 in0.0 mm 0.00 in0.0 mm
05:49 AM -1.7°F-18.7°C -6.4°F-21.3°C 80% Calm Calm 1.0 mph1.6 kmh 30.73 in1040.6 mb 0.00 in0.0 mm 0.00 in0.0 mm 0.00 in0.0 mm
05:55 AM -1.7°F-18.7°C -6.4°F-21.3°C 80% 1.0 mph NW1.6 kmh NW 2.0 mph3.2 kmh 30.73 in1040.6 mb 0.00 in0.0 mm 0.00 in0.0 mm 0.00 in0.0 mm
06:00 AM -1.9°F-18.8°C -6.6°F-21.4°C 80% Calm Calm 2.0 mph3.2 kmh 30.73 in1040.6 mb 0.00 in0.0 mm 0.00 in0.0 mm 0.00 in0.0 mm
06:04 AM -2.0°F-18.9°C -6.9°F-21.6°C 79% Calm Calm 1.0 mph1.6 kmh 30.73 in1040.6 mb 0.00 in0.0 mm 0.00 in0.0 mm 0.00 in0.0 mm
06:09 AM -2.1°F-18.9°C -7.0°F-21.7°C 79% Calm Calm 2.0 mph3.2 kmh 30.73 in1040.6 mb 0.00 in0.0 mm 0.00 in0.0 mm 0.00 in0.0 mm
06:15 AM -2.1°F-18.9°C -7.0°F-21.7°C 79% Calm Calm 1.0 mph1.6 kmh 30.74 in1041.0 mb 0.00 in0.0 mm 0.00 in0.0 mm 0.00 in0.0 mm
06:20 AM -2.2°F-19.0°C -7.1°F-21.7°C 79% 2.0 mph NW3.2 kmh NW 3.0 mph4.8 kmh 30.74 in1041.0 mb 0.00 in0.0 mm 0.00 in0.0 mm 0.00 in0.0 mm
06:25 AM -2.3°F-19.1°C -7.2°F-21.8°C 79% 1.0 mph NW1.6 kmh NW 3.0 mph4.8 kmh 30.74 in1041.0 mb 0.00 in0.0 mm 0.00 in0.0 mm 0.00 in0.0 mm
06:30 AM -2.3°F-19.1°C -7.2°F-21.8°C 79% 2.0 mph NW3.2 kmh NW 3.0 mph4.8 kmh 30.74 in1041.0 mb 0.00 in0.0 mm 0.00 in0.0 mm 0.00 in0.0 mm
06:35 AM -2.5°F-19.2°C -7.4°F-21.9°C 79% Calm Calm 3.0 mph4.8 kmh 30.74 in1041.0 mb 0.00 in0.0 mm 0.00 in0.0 mm 0.00 in0.0 mm
06:40 AM -2.5°F-19.2°C -7.7°F-22.1°C 78% 1.0 mph NW1.6 kmh NW 3.0 mph4.8 kmh 30.75 in1041.3 mb 0.00 in0.0 mm 0.00 in0.0 mm 0.00 in0.0 mm
06:45 AM -2.6°F-19.2°C -7.8°F-22.1°C 78% Calm Calm 3.0 mph4.8 kmh 30.74 in1041.0 mb 0.00 in0.0 mm 0.00 in0.0 mm 0.00 in0.0 mm
06:50 AM -2.6°F-19.2°C -7.8°F-22.1°C 78% 1.0 mph NW1.6 kmh NW 2.0 mph3.2 kmh 30.74 in1041.0 mb 0.00 in0.0 mm 0.00 in0.0 mm 0.00 in0.0 mm
06:55 AM -2.7°F-19.3°C -7.9°F-22.2°C 78% Calm Calm 2.0 mph3.2 kmh 30.75 in1041.3 mb 0.00 in0.0 mm 0.00 in0.0 mm 0.00 in0.0 mm
07:00 AM -2.8°F-19.3°C -7.9°F-22.2°C 78% Calm Calm 3.0 mph4.8 kmh 30.75 in1041.3 mb 0.00 in0.0 mm 0.00 in0.0 mm 0.00 in0.0 mm
07:04 AM -2.9°F-19.4°C -8.0°F-22.2°C 78% 1.0 mph NW1.6 kmh NW 2.0 mph3.2 kmh 30.75 in1041.3 mb 0.00 in0.0 mm 0.00 in0.0 mm 0.00 in0.0 mm
07:10 AM -3.0°F-19.4°C -8.1°F-22.3°C 78% 1.0 mph NW1.6 kmh NW 4.0 mph6.4 kmh 30.75 in1041.3 mb 0.00 in0.0 mm 0.00 in0.0 mm 0.00 in0.0 mm
07:15 AM -3.0°F-19.4°C -8.1°F-22.3°C 78% 3.0 mph NW4.8 kmh NW 3.0 mph4.8 kmh 30.75 in1041.3 mb 0.00 in0.0 mm 0.00 in0.0 mm 0.00 in0.0 mm
07:20 AM -3.1°F-19.5°C -8.5°F-22.5°C 77% 2.0 mph NW3.2 kmh NW 2.0 mph3.2 kmh 30.75 in1041.3 mb 0.00 in0.0 mm 0.00 in0.0 mm 0.00 in0.0 mm
07:25 AM -3.1°F-19.5°C -8.5°F-22.5°C 77% Calm Calm 3.0 mph4.8 kmh 30.75 in1041.3 mb 0.00 in0.0 mm 0.00 in0.0 mm 0.00 in0.0 mm
07:30 AM -3.2°F-19.6°C -8.6°F-22.6°C 77% 1.0 mph WNW1.6 kmh WNW 5.0 mph8.0 kmh 30.76 in1041.7 mb 0.00 in0.0 mm 0.00 in0.0 mm 0.00 in0.0 mm
07:35 AM -3.2°F-19.6°C -8.6°F-22.6°C 77% 1.0 mph NW1.6 kmh NW 3.0 mph4.8 kmh 30.76 in1041.7 mb 0.00 in0.0 mm 0.00 in0.0 mm 0.00 in0.0 mm
07:40 AM -3.3°F-19.6°C -8.7°F-22.6°C 77% 2.0 mph WNW3.2 kmh WNW 3.0 mph4.8 kmh 30.76 in1041.7 mb 0.00 in0.0 mm 0.00 in0.0 mm 0.00 in0.0 mm
07:44 AM -3.4°F-19.7°C -8.8°F-22.7°C 77% 1.0 mph NW1.6 kmh NW 4.0 mph6.4 kmh 30.76 in1041.7 mb 0.00 in0.0 mm 0.00 in0.0 mm 0.00 in0.0 mm
07:50 AM -3.5°F-19.7°C -8.9°F-22.7°C 77% 2.0 mph NW3.2 kmh NW 3.0 mph4.8 kmh 30.76 in1041.7 mb 0.00 in0.0 mm 0.00 in0.0 mm 0.00 in0.0 mm
07:55 AM -3.6°F-19.8°C -9.0°F-22.8°C 77% 2.0 mph NW3.2 kmh NW 4.0 mph6.4 kmh 30.76 in1041.7 mb 0.00 in0.0 mm 0.00 in0.0 mm 0.00 in0.0 mm
08:00 AM -3.7°F-19.8°C -9.1°F-22.8°C 77% 1.0 mph NW1.6 kmh NW 3.0 mph4.8 kmh 30.76 in1041.7 mb 0.00 in0.0 mm 0.00 in0.0 mm 0.00 in0.0 mm
08:04 AM -3.7°F-19.8°C -9.1°F-22.8°C 77% 2.0 mph NW3.2 kmh NW 2.0 mph3.2 kmh 30.76 in1041.7 mb 0.00 in0.0 mm 0.00 in0.0 mm 0.00 in0.0 mm
08:10 AM -3.8°F-19.9°C -9.5°F-23.1°C 76% 2.0 mph NW3.2 kmh NW 3.0 mph4.8 kmh 30.77 in1042.0 mb 0.00 in0.0 mm 0.00 in0.0 mm 0.00 in0.0 mm
08:15 AM -3.9°F-19.9°C -9.5°F-23.1°C 76% 3.0 mph WNW4.8 kmh WNW 3.0 mph4.8 kmh 30.77 in1042.0 mb 0.00 in0.0 mm 0.00 in0.0 mm 0.00 in0.0 mm
08:20 AM -4.0°F-20.0°C -9.6°F-23.1°C 76% 4.0 mph NW6.4 kmh NW 4.0 mph6.4 kmh 30.77 in1042.0 mb 0.00 in0.0 mm 0.00 in0.0 mm 0.00 in0.0 mm
08:24 AM -4.1°F-20.1°C -9.7°F-23.2°C 76% 5.0 mph NW8.0 kmh NW 5.0 mph8.0 kmh 30.77 in1042.0 mb 0.00 in0.0 mm 0.00 in0.0 mm 0.00 in0.0 mm
08:30 AM -4.2°F-20.1°C -9.8°F-23.2°C 76% 3.0 mph NW4.8 kmh NW 3.0 mph4.8 kmh 30.77 in1042.0 mb 0.00 in0.0 mm 0.00 in0.0 mm 0.00 in0.0 mm
08:35 AM -4.4°F-20.2°C -10.0°F-23.3°C 76% 1.0 mph NW1.6 kmh NW 3.0 mph4.8 kmh 30.77 in1042.0 mb 0.00 in0.0 mm 0.00 in0.0 mm 0.00 in0.0 mm
08:40 AM -4.4°F-20.2°C -10.0°F-23.3°C 76% 1.0 mph NW1.6 kmh NW 3.0 mph4.8 kmh 30.77 in1042.0 mb 0.00 in0.0 mm 0.00 in0.0 mm 0.00 in0.0 mm
08:45 AM -4.5°F-20.3°C -10.1°F-23.4°C 76% 2.0 mph NW3.2 kmh NW 3.0 mph4.8 kmh 30.77 in1042.0 mb 0.00 in0.0 mm 0.00 in0.0 mm 0.00 in0.0 mm
08:50 AM -4.6°F-20.3°C -10.2°F-23.4°C 76% 4.0 mph NW6.4 kmh NW 4.0 mph6.4 kmh 30.78 in1042.3 mb 0.00 in0.0 mm 0.00 in0.0 mm 0.00 in0.0 mm
08:55 AM -4.7°F-20.4°C -10.3°F-23.5°C 76% 2.0 mph NW3.2 kmh NW 4.0 mph6.4 kmh 30.78 in1042.3 mb 0.00 in0.0 mm 0.00 in0.0 mm 0.00 in0.0 mm
09:00 AM -4.7°F-20.4°C -10.3°F-23.5°C 76% 1.0 mph NW1.6 kmh NW 3.0 mph4.8 kmh 30.78 in1042.3 mb 0.00 in0.0 mm 0.00 in0.0 mm 0.00 in0.0 mm
09:05 AM -4.9°F-20.5°C -10.5°F-23.6°C 76% 3.0 mph NW4.8 kmh NW 3.0 mph4.8 kmh 30.78 in1042.3 mb 0.00 in0.0 mm 0.00 in0.0 mm 0.00 in0.0 mm
09:09 AM -4.9°F-20.5°C -10.5°F-23.6°C 76% 4.0 mph NW6.4 kmh NW 4.0 mph6.4 kmh 30.78 in1042.3 mb 0.00 in0.0 mm 0.00 in0.0 mm 0.00 in0.0 mm
09:15 AM -5.0°F-20.6°C -10.6°F-23.7°C 76% Calm Calm 5.0 mph8.0 kmh 30.78 in1042.3 mb 0.00 in0.0 mm 0.00 in0.0 mm 0.00 in0.0 mm
09:20 AM -5.0°F-20.6°C -10.6°F-23.7°C 76% 1.0 mph NW1.6 kmh NW 2.0 mph3.2 kmh 30.78 in1042.3 mb 0.00 in0.0 mm 0.00 in0.0 mm 0.00 in0.0 mm
09:25 AM -5.2°F-20.7°C -10.8°F-23.8°C 76% 2.0 mph NW3.2 kmh NW 3.0 mph4.8 kmh 30.78 in1042.3 mb 0.00 in0.0 mm 0.00 in0.0 mm 0.00 in0.0 mm
09:30 AM -5.2°F-20.7°C -11.1°F-23.9°C 75% 3.0 mph NW4.8 kmh NW 7.0 mph11.3 kmh 30.78 in1042.3 mb 0.00 in0.0 mm 0.00 in0.0 mm 0.00 in0.0 mm
09:35 AM -5.1°F-20.6°C -10.7°F-23.7°C 76% 3.0 mph NW4.8 kmh NW 4.0 mph6.4 kmh 30.78 in1042.3 mb 0.00 in0.0 mm 0.00 in0.0 mm 0.00 in0.0 mm
09:40 AM -5.1°F-20.6°C -11.0°F-23.9°C 75% 3.0 mph NW4.8 kmh NW 4.0 mph6.4 kmh 30.79 in1042.7 mb 0.00 in0.0 mm 0.00 in0.0 mm 0.00 in0.0 mm
09:45 AM -5.0°F-20.6°C -10.9°F-23.8°C 75% 2.0 mph NW3.2 kmh NW 5.0 mph8.0 kmh 30.79 in1042.7 mb 0.00 in0.0 mm 0.00 in0.0 mm 0.00 in0.0 mm
09:50 AM -5.0°F-20.6°C -10.9°F-23.8°C 75% 1.0 mph NW1.6 kmh NW 4.0 mph6.4 kmh 30.79 in1042.7 mb 0.00 in0.0 mm 0.00 in0.0 mm 0.00 in0.0 mm
09:55 AM -4.9°F-20.5°C -10.8°F-23.8°C 75% 5.0 mph NW8.0 kmh NW 5.0 mph8.0 kmh 30.80 in1043.0 mb 0.00 in0.0 mm 0.00 in0.0 mm 0.00 in0.0 mm
10:00 AM -4.8°F-20.4°C -10.7°F-23.7°C 75% 2.0 mph NW3.2 kmh NW 3.0 mph4.8 kmh 30.80 in1043.0 mb 0.00 in0.0 mm 0.00 in0.0 mm 0.00 in0.0 mm
10:05 AM -4.8°F-20.4°C -10.7°F-23.7°C 75% 3.0 mph WSW4.8 kmh WSW 4.0 mph6.4 kmh 30.80 in1043.0 mb 0.00 in0.0 mm 0.00 in0.0 mm 0.00 in0.0 mm
10:09 AM -4.7°F-20.4°C -10.9°F-23.8°C 74% 3.0 mph NW4.8 kmh NW 5.0 mph8.0 kmh 30.80 in1043.0 mb 0.00 in0.0 mm 0.00 in0.0 mm 0.00 in0.0 mm
10:15 AM -4.6°F-20.3°C -10.8°F-23.8°C 74% 4.0 mph WNW6.4 kmh WNW 5.0 mph8.0 kmh 30.80 in1043.0 mb 0.00 in0.0 mm 0.00 in0.0 mm 0.00 in0.0 mm
10:20 AM -4.4°F-20.2°C -10.6°F-23.7°C 74% 1.0 mph NW1.6 kmh NW 2.0 mph3.2 kmh 30.80 in1043.0 mb 0.00 in0.0 mm 0.00 in0.0 mm 0.00 in0.0 mm
10:25 AM -4.2°F-20.1°C -10.4°F-23.6°C 74% Calm Calm 5.0 mph8.0 kmh 30.81 in1043.3 mb 0.00 in0.0 mm 0.00 in0.0 mm 0.00 in0.0 mm
10:30 AM -4.2°F-20.1°C -10.7°F-23.7°C 73% 4.0 mph NW6.4 kmh NW 10.0 mph16.1 kmh 30.81 in1043.3 mb 0.00 in0.0 mm 0.00 in0.0 mm 0.00 in0.0 mm
10:35 AM -4.2°F-20.1°C -10.7°F-23.7°C 73% 3.0 mph N4.8 kmh N 4.0 mph6.4 kmh 30.81 in1043.3 mb 0.00 in0.0 mm 0.00 in0.0 mm 0.00 in0.0 mm
10:39 AM -4.2°F-20.1°C -10.7°F-23.7°C 73% 1.0 mph NW1.6 kmh NW 5.0 mph8.0 kmh 30.81 in1043.3 mb 0.00 in0.0 mm 0.00 in0.0 mm 0.00 in0.0 mm
10:44 AM -4.0°F-20.0°C -10.5°F-23.6°C 73% 3.0 mph WNW4.8 kmh WNW 4.0 mph6.4 kmh 30.81 in1043.3 mb 0.00 in0.0 mm 0.00 in0.0 mm 0.00 in0.0 mm
10:50 AM -3.9°F-19.9°C -10.6°F-23.7°C 72% 5.0 mph NW8.0 kmh NW 5.0 mph8.0 kmh 30.81 in1043.3 mb 0.00 in0.0 mm 0.00 in0.0 mm 0.00 in0.0 mm
10:55 AM -3.8°F-19.9°C -10.5°F-23.6°C 72% 3.0 mph NW4.8 kmh NW 5.0 mph8.0 kmh 30.81 in1043.3 mb 0.00 in0.0 mm 0.00 in0.0 mm 0.00 in0.0 mm
11:00 AM -3.7°F-19.8°C -10.4°F-23.6°C 72% 2.0 mph NW3.2 kmh NW 4.0 mph6.4 kmh 30.81 in1043.3 mb 0.00 in0.0 mm 0.00 in0.0 mm 0.00 in0.0 mm
11:05 AM -3.5°F-19.7°C -10.3°F-23.5°C 72% 1.0 mph NW1.6 kmh NW 3.0 mph4.8 kmh 30.82 in1043.7 mb 0.00 in0.0 mm 0.00 in0.0 mm 0.00 in0.0 mm
11:10 AM -3.2°F-19.6°C -10.2°F-23.4°C 71% 1.0 mph NW1.6 kmh NW 6.0 mph9.7 kmh 30.82 in1043.7 mb 0.00 in0.0 mm 0.00 in0.0 mm 0.00 in0.0 mm
11:15 AM -3.1°F-19.5°C -10.1°F-23.4°C 71% 5.0 mph NW8.0 kmh NW 5.0 mph8.0 kmh 30.82 in1043.7 mb 0.00 in0.0 mm 0.00 in0.0 mm 0.00 in0.0 mm
11:20 AM -3.0°F-19.4°C -10.1°F-23.4°C 71% 5.0 mph NW8.0 kmh NW 5.0 mph8.0 kmh 30.82 in1043.7 mb 0.00 in0.0 mm 0.00 in0.0 mm 0.00 in0.0 mm
11:25 AM -2.7°F-19.3°C -9.8°F-23.2°C 71% 3.0 mph NW4.8 kmh NW 4.0 mph6.4 kmh 30.82 in1043.7 mb 0.00 in0.0 mm 0.00 in0.0 mm 0.00 in0.0 mm
11:30 AM -2.3°F-19.1°C -9.4°F-23.0°C 71% 1.0 mph WNW1.6 kmh WNW 7.0 mph11.3 kmh 30.82 in1043.7 mb 0.00 in0.0 mm 0.00 in0.0 mm 0.00 in0.0 mm
11:35 AM -2.0°F-18.9°C -9.1°F-22.8°C 71% 2.0 mph NW3.2 kmh NW 3.0 mph4.8 kmh 30.83 in1044.0 mb 0.00 in0.0 mm 0.00 in0.0 mm 0.00 in0.0 mm
11:40 AM -1.8°F-18.8°C -9.2°F-22.9°C 70% 2.0 mph NNW3.2 kmh NNW 5.0 mph8.0 kmh 30.83 in1044.0 mb 0.00 in0.0 mm 0.00 in0.0 mm 0.00 in0.0 mm
11:45 AM -1.7°F-18.7°C -9.1°F-22.8°C 70% 3.0 mph WNW4.8 kmh WNW 7.0 mph11.3 kmh 30.83 in1044.0 mb 0.00 in0.0 mm 0.00 in0.0 mm 0.00 in0.0 mm
11:50 AM -1.6°F-18.7°C -9.3°F-22.9°C 69% 2.0 mph W3.2 kmh W 7.0 mph11.3 kmh 30.83 in1044.0 mb 0.00 in0.0 mm 0.00 in0.0 mm 0.00 in0.0 mm
11:55 AM -1.3°F-18.5°C -8.7°F-22.6°C 70% 1.0 mph NW1.6 kmh NW 5.0 mph8.0 kmh 30.83 in1044.0 mb 0.00 in0.0 mm 0.00 in0.0 mm 0.00 in0.0 mm
12:00 PM -1.0°F-18.3°C -8.7°F-22.6°C 69% 2.0 mph WNW3.2 kmh WNW 5.0 mph8.0 kmh 30.83 in1044.0 mb 0.00 in0.0 mm 0.00 in0.0 mm 0.00 in0.0 mm
12:05 PM -0.7°F-18.2°C -8.1°F-22.3°C 70% 3.0 mph W4.8 kmh W 4.0 mph6.4 kmh 30.83 in1044.0 mb 0.00 in0.0 mm 0.00 in0.0 mm 0.00 in0.0 mm
12:10 PM -0.5°F-18.1°C -8.2°F-22.3°C 69% 1.0 mph W1.6 kmh W 6.0 mph9.7 kmh 30.83 in1044.0 mb 0.00 in0.0 mm 0.00 in0.0 mm 0.00 in0.0 mm
12:14 PM -0.3°F-17.9°C -8.0°F-22.2°C 69% 3.0 mph WNW4.8 kmh WNW 6.0 mph9.7 kmh 30.83 in1044.0 mb 0.00 in0.0 mm 0.00 in0.0 mm 0.00 in0.0 mm
12:20 PM -0.1°F-17.8°C -8.1°F-22.3°C 68% 2.0 mph W3.2 kmh W 3.0 mph4.8 kmh 30.83 in1044.0 mb 0.00 in0.0 mm 0.00 in0.0 mm 0.00 in0.0 mm
12:25 PM -0.1°F-17.8°C -8.0°F-22.2°C 68% 1.0 mph NW1.6 kmh NW 5.0 mph8.0 kmh 30.84 in1044.4 mb 0.00 in0.0 mm 0.00 in0.0 mm 0.00 in0.0 mm
12:30 PM 0.1°F-17.7°C -7.9°F-22.2°C 68% 1.0 mph W1.6 kmh W 4.0 mph6.4 kmh 30.84 in1044.4 mb 0.00 in0.0 mm 0.00 in0.0 mm 0.00 in0.0 mm
12:34 PM 0.1°F-17.7°C -7.9°F-22.2°C 68% 5.0 mph WSW8.0 kmh WSW 8.0 mph12.9 kmh 30.84 in1044.4 mb 0.00 in0.0 mm 0.00 in0.0 mm 0.00 in0.0 mm
12:40 PM 0.3°F-17.6°C -7.8°F-22.1°C 68% 3.0 mph NNW4.8 kmh NNW 4.0 mph6.4 kmh 30.83 in1044.0 mb 0.00 in0.0 mm 0.00 in0.0 mm 0.00 in0.0 mm
12:45 PM 0.6°F-17.4°C -7.5°F-21.9°C 68% 3.0 mph NW4.8 kmh NW 5.0 mph8.0 kmh 30.83 in1044.0 mb 0.00 in0.0 mm 0.00 in0.0 mm 0.00 in0.0 mm
12:50 PM 1.0°F-17.2°C -7.1°F-21.7°C 68% 1.0 mph NW1.6 kmh NW 3.0 mph4.8 kmh 30.83 in1044.0 mb 0.00 in0.0 mm 0.00 in0.0 mm 0.00 in0.0 mm
12:55 PM 1.3°F-17.1°C -6.8°F-21.6°C 68% 3.0 mph WNW4.8 kmh WNW 4.0 mph6.4 kmh 30.83 in1044.0 mb 0.00 in0.0 mm 0.00 in0.0 mm 0.00 in0.0 mm
12:59 PM 1.5°F-16.9°C -6.6°F-21.4°C 68% 4.0 mph W6.4 kmh W 4.0 mph6.4 kmh 30.83 in1044.0 mb 0.00 in0.0 mm 0.00 in0.0 mm 0.00 in0.0 mm
01:05 PM 1.5°F-16.9°C -6.9°F-21.6°C 67% 3.0 mph NW4.8 kmh NW 4.0 mph6.4 kmh 30.83 in1044.0 mb 0.00 in0.0 mm 0.00 in0.0 mm 0.00 in0.0 mm
01:10 PM 1.4°F-17.0°C -7.3°F-21.8°C 66% 3.0 mph NW4.8 kmh NW 5.0 mph8.0 kmh 30.82 in1043.7 mb 0.00 in0.0 mm 0.00 in0.0 mm 0.00 in0.0 mm
01:15 PM 1.4°F-17.0°C -7.3°F-21.8°C 66% 3.0 mph N4.8 kmh N 6.0 mph9.7 kmh 30.82 in1043.7 mb 0.00 in0.0 mm 0.00 in0.0 mm 0.00 in0.0 mm
01:20 PM 1.5°F-16.9°C -7.5°F-21.9°C 65% 2.0 mph NW3.2 kmh NW 4.0 mph6.4 kmh 30.82 in1043.7 mb 0.00 in0.0 mm 0.00 in0.0 mm 0.00 in0.0 mm
01:25 PM 2.1°F-16.6°C -6.0°F-21.1°C 68% 5.0 mph NW8.0 kmh NW 5.0 mph8.0 kmh 30.82 in1043.7 mb 0.00 in0.0 mm 0.00 in0.0 mm 0.00 in0.0 mm
01:30 PM 2.2°F-16.6°C -6.2°F-21.2°C 67% 5.0 mph WSW8.0 kmh WSW 5.0 mph8.0 kmh 30.82 in1043.7 mb 0.00 in0.0 mm 0.00 in0.0 mm 0.00 in0.0 mm
01:35 PM 2.0°F-16.7°C -6.7°F-21.5°C 66% 3.0 mph WSW4.8 kmh WSW 8.0 mph12.9 kmh 30.82 in1043.7 mb 0.00 in0.0 mm 0.00 in0.0 mm 0.00 in0.0 mm
01:40 PM 2.5°F-16.4°C -5.3°F-20.7°C 69% 2.0 mph NW3.2 kmh NW 8.0 mph12.9 kmh 30.82 in1043.7 mb 0.00 in0.0 mm 0.00 in0.0 mm 0.00 in0.0 mm
01:45 PM 2.5°F-16.4°C -6.3°F-21.3°C 66% 2.0 mph NW3.2 kmh NW 5.0 mph8.0 kmh 30.82 in1043.7 mb 0.00 in0.0 mm 0.00 in0.0 mm 0.00 in0.0 mm
01:50 PM 2.7°F-16.3°C -6.4°F-21.3°C 65% 1.0 mph WSW1.6 kmh WSW 4.0 mph6.4 kmh 30.81 in1043.3 mb 0.00 in0.0 mm 0.00 in0.0 mm 0.00 in0.0 mm
01:55 PM 2.9°F-16.2°C -6.2°F-21.2°C 65% 4.0 mph NW6.4 kmh NW 5.0 mph8.0 kmh 30.81 in1043.3 mb 0.00 in0.0 mm 0.00 in0.0 mm 0.00 in0.0 mm
02:00 PM 2.9°F-16.2°C -6.2°F-21.2°C 65% 7.0 mph SW11.3 kmh SW 7.0 mph11.3 kmh 30.81 in1043.3 mb 0.00 in0.0 mm 0.00 in0.0 mm 0.00 in0.0 mm
02:05 PM 3.0°F-16.1°C -6.4°F-21.3°C 64% 3.0 mph NW4.8 kmh NW 7.0 mph11.3 kmh 30.81 in1043.3 mb 0.00 in0.0 mm 0.00 in0.0 mm 0.00 in0.0 mm
02:10 PM 3.0°F-16.1°C -6.7°F-21.5°C 63% 3.0 mph W4.8 kmh W 9.0 mph14.5 kmh 30.81 in1043.3 mb 0.00 in0.0 mm 0.00 in0.0 mm 0.00 in0.0 mm
02:15 PM 3.2°F-16.0°C -6.2°F-21.2°C 64% 4.0 mph NW6.4 kmh NW 7.0 mph11.3 kmh 30.81 in1043.3 mb 0.00 in0.0 mm 0.00 in0.0 mm 0.00 in0.0 mm
02:20 PM 3.5°F-15.8°C -5.9°F-21.1°C 64% 3.0 mph NW4.8 kmh NW 6.0 mph9.7 kmh 30.81 in1043.3 mb 0.00 in0.0 mm 0.00 in0.0 mm 0.00 in0.0 mm
02:25 PM 3.8°F-15.7°C -5.3°F-20.7°C 65% 5.0 mph NW8.0 kmh NW 5.0 mph8.0 kmh 30.81 in1043.3 mb 0.00 in0.0 mm 0.00 in0.0 mm 0.00 in0.0 mm
02:30 PM 4.1°F-15.5°C -5.4°F-20.8°C 64% 3.0 mph WNW4.8 kmh WNW 4.0 mph6.4 kmh 30.81 in1043.3 mb 0.00 in0.0 mm 0.00 in0.0 mm 0.00 in0.0 mm
02:35 PM 4.2°F-15.4°C -5.6°F-20.9°C 63% 6.0 mph W9.7 kmh W 7.0 mph11.3 kmh 30.80 in1043.0 mb 0.00 in0.0 mm 0.00 in0.0 mm 0.00 in0.0 mm
02:40 PM 4.2°F-15.4°C -5.9°F-21.1°C 62% 6.0 mph W9.7 kmh W 8.0 mph12.9 kmh 30.80 in1043.0 mb 0.00 in0.0 mm 0.00 in0.0 mm 0.00 in0.0 mm
02:45 PM 4.3°F-15.4°C -5.5°F-20.8°C 63% Calm Calm 5.0 mph8.0 kmh 30.80 in1043.0 mb 0.00 in0.0 mm 0.00 in0.0 mm 0.00 in0.0 mm
02:50 PM 4.6°F-15.2°C -4.6°F-20.3°C 65% 2.0 mph NW3.2 kmh NW 4.0 mph6.4 kmh 30.80 in1043.0 mb 0.00 in0.0 mm 0.00 in0.0 mm 0.00 in0.0 mm
02:55 PM 4.7°F-15.2°C -5.1°F-20.6°C 63% 4.0 mph NW6.4 kmh NW 7.0 mph11.3 kmh 30.80 in1043.0 mb 0.00 in0.0 mm 0.00 in0.0 mm 0.00 in0.0 mm
03:00 PM 4.6°F-15.2°C -5.5°F-20.8°C 62% 3.0 mph WNW4.8 kmh WNW 4.0 mph6.4 kmh 30.80 in1043.0 mb 0.00 in0.0 mm 0.00 in0.0 mm 0.00 in0.0 mm
03:05 PM 4.8°F-15.1°C -5.7°F-20.9°C 61% 1.0 mph W1.6 kmh W 3.0 mph4.8 kmh 30.80 in1043.0 mb 0.00 in0.0 mm 0.00 in0.0 mm 0.00 in0.0 mm
03:09 PM 5.2°F-14.9°C -5.0°F-20.6°C 62% 3.0 mph WNW4.8 kmh WNW 4.0 mph6.4 kmh 30.80 in1043.0 mb 0.00 in0.0 mm 0.00 in0.0 mm 0.00 in0.0 mm
03:15 PM 5.3°F-14.8°C -5.2°F-20.7°C 61% 4.0 mph NW6.4 kmh NW 5.0 mph8.0 kmh 30.80 in1043.0 mb 0.00 in0.0 mm 0.00 in0.0 mm 0.00 in0.0 mm
03:20 PM 5.2°F-14.9°C -5.7°F-20.9°C 60% 3.0 mph NW4.8 kmh NW 5.0 mph8.0 kmh 30.80 in1043.0 mb 0.00 in0.0 mm 0.00 in0.0 mm 0.00 in0.0 mm
03:24 PM 5.5°F-14.7°C -4.7°F-20.4°C 62% 3.0 mph W4.8 kmh W 3.0 mph4.8 kmh 30.80 in1043.0 mb 0.00 in0.0 mm 0.00 in0.0 mm 0.00 in0.0 mm
03:30 PM 5.5°F-14.7°C -5.4°F-20.8°C 60% 7.0 mph NW11.3 kmh NW 7.0 mph11.3 kmh 30.80 in1043.0 mb 0.00 in0.0 mm 0.00 in0.0 mm 0.00 in0.0 mm
03:34 PM 5.5°F-14.7°C -5.4°F-20.8°C 60% Calm Calm 4.0 mph6.4 kmh 30.80 in1043.0 mb 0.00 in0.0 mm 0.00 in0.0 mm 0.00 in0.0 mm
03:40 PM 5.7°F-14.6°C -5.2°F-20.7°C 60% 2.0 mph WNW3.2 kmh WNW 8.0 mph12.9 kmh 30.80 in1043.0 mb 0.00 in0.0 mm 0.00 in0.0 mm 0.00 in0.0 mm
03:45 PM 5.4°F-14.8°C -5.8°F-21.0°C 59% 2.0 mph NW3.2 kmh NW 6.0 mph9.7 kmh 30.80 in1043.0 mb 0.00 in0.0 mm 0.00 in0.0 mm 0.00 in0.0 mm
03:49 PM 5.5°F-14.7°C -5.4°F-20.8°C 60% 3.0 mph W4.8 kmh W 3.0 mph4.8 kmh 30.80 in1043.0 mb 0.00 in0.0 mm 0.00 in0.0 mm 0.00 in0.0 mm
03:55 PM 5.9°F-14.5°C -4.6°F-20.3°C 61% 5.0 mph NW8.0 kmh NW 6.0 mph9.7 kmh 30.80 in1043.0 mb 0.00 in0.0 mm 0.00 in0.0 mm 0.00 in0.0 mm
04:00 PM 5.9°F-14.5°C -5.3°F-20.7°C 59% 4.0 mph SW6.4 kmh SW 6.0 mph9.7 kmh 30.80 in1043.0 mb 0.00 in0.0 mm 0.00 in0.0 mm 0.00 in0.0 mm
04:05 PM 6.1°F-14.4°C -4.8°F-20.4°C 60% 5.0 mph NNW8.0 kmh NNW 8.0 mph12.9 kmh 30.80 in1043.0 mb 0.00 in0.0 mm 0.00 in0.0 mm 0.00 in0.0 mm
04:09 PM 5.8°F-14.6°C -5.4°F-20.8°C 59% 1.0 mph NW1.6 kmh NW 5.0 mph8.0 kmh 30.80 in1043.0 mb 0.00 in0.0 mm 0.00 in0.0 mm 0.00 in0.0 mm
04:15 PM 6.0°F-14.4°C -5.2°F-20.7°C 59% 2.0 mph NW3.2 kmh NW 7.0 mph11.3 kmh 30.80 in1043.0 mb 0.00 in0.0 mm 0.00 in0.0 mm 0.00 in0.0 mm
04:20 PM 6.4°F-14.2°C -4.5°F-20.3°C 60% 2.0 mph NW3.2 kmh NW 3.0 mph4.8 kmh 30.80 in1043.0 mb 0.00 in0.0 mm 0.00 in0.0 mm 0.00 in0.0 mm
04:25 PM 6.8°F-14.0°C -4.1°F-20.1°C 60% 3.0 mph WNW4.8 kmh WNW 3.0 mph4.8 kmh 30.80 in1043.0 mb 0.00 in0.0 mm 0.00 in0.0 mm 0.00 in0.0 mm
04:30 PM 7.1°F-13.8°C -3.9°F-19.9°C 60% 2.0 mph WNW3.2 kmh WNW 3.0 mph4.8 kmh 30.80 in1043.0 mb 0.00 in0.0 mm 0.00 in0.0 mm 0.00 in0.0 mm
04:35 PM 7.1°F-13.8°C -4.6°F-20.3°C 58% 5.0 mph NW8.0 kmh NW 5.0 mph8.0 kmh 30.80 in1043.0 mb 0.00 in0.0 mm 0.00 in0.0 mm 0.00 in0.0 mm
04:40 PM 6.7°F-14.1°C -4.9°F-20.5°C 58% 2.0 mph NW3.2 kmh NW 5.0 mph8.0 kmh 30.80 in1043.0 mb 0.00 in0.0 mm 0.00 in0.0 mm 0.00 in0.0 mm
04:45 PM 6.5°F-14.2°C -5.5°F-20.8°C 57% 2.0 mph NW3.2 kmh NW 3.0 mph4.8 kmh 30.80 in1043.0 mb 0.00 in0.0 mm 0.00 in0.0 mm 0.00 in0.0 mm
04:50 PM 6.5°F-14.2°C -5.1°F-20.6°C 58% 4.0 mph NW6.4 kmh NW 4.0 mph6.4 kmh 30.80 in1043.0 mb 0.00 in0.0 mm 0.00 in0.0 mm 0.00 in0.0 mm
04:55 PM 6.6°F-14.1°C -5.4°F-20.8°C 57% 4.0 mph NW6.4 kmh NW 4.0 mph6.4 kmh 30.80 in1043.0 mb 0.00 in0.0 mm 0.00 in0.0 mm 0.00 in0.0 mm
05:00 PM 6.7°F-14.1°C -5.3°F-20.7°C 57% 1.0 mph WNW1.6 kmh WNW 3.0 mph4.8 kmh 30.80 in1043.0 mb 0.00 in0.0 mm 0.00 in0.0 mm 0.00 in0.0 mm
05:05 PM 6.7°F-14.1°C -5.7°F-20.9°C 56% 4.0 mph W6.4 kmh W 5.0 mph8.0 kmh 30.80 in1043.0 mb 0.00 in0.0 mm 0.00 in0.0 mm 0.00 in0.0 mm
05:10 PM 6.4°F-14.2°C -5.9°F-21.1°C 56% 2.0 mph NW3.2 kmh NW 5.0 mph8.0 kmh 30.81 in1043.3 mb 0.00 in0.0 mm 0.00 in0.0 mm 0.00 in0.0 mm
05:15 PM 6.3°F-14.3°C -5.7°F-20.9°C 57% 4.0 mph NW6.4 kmh NW 4.0 mph6.4 kmh 30.81 in1043.3 mb 0.00 in0.0 mm 0.00 in0.0 mm 0.00 in0.0 mm
05:20 PM 6.5°F-14.2°C -5.5°F-20.8°C 57% 1.0 mph W1.6 kmh W 4.0 mph6.4 kmh 30.81 in1043.3 mb 0.00 in0.0 mm 0.00 in0.0 mm 0.00 in0.0 mm
05:25 PM 6.5°F-14.2°C -5.5°F-20.8°C 57% 3.0 mph NW4.8 kmh NW 5.0 mph8.0 kmh 30.81 in1043.3 mb 0.00 in0.0 mm 0.00 in0.0 mm 0.00 in0.0 mm
05:30 PM 6.2°F-14.3°C -6.1°F-21.2°C 56% 2.0 mph NW3.2 kmh NW 5.0 mph8.0 kmh 30.81 in1043.3 mb 0.00 in0.0 mm 0.00 in0.0 mm 0.00 in0.0 mm
05:35 PM 5.7°F-14.6°C -7.0°F-21.7°C 55% 4.0 mph NNW6.4 kmh NNW 6.0 mph9.7 kmh 30.81 in1043.3 mb 0.00 in0.0 mm 0.00 in0.0 mm 0.00 in0.0 mm
05:40 PM 5.4°F-14.8°C -6.9°F-21.6°C 56% 2.0 mph NNW3.2 kmh NNW 3.0 mph4.8 kmh 30.81 in1043.3 mb 0.00 in0.0 mm 0.00 in0.0 mm 0.00 in0.0 mm
05:45 PM 5.3°F-14.8°C -6.6°F-21.4°C 57% Calm Calm -- 30.81 in1043.3 mb 0.00 in0.0 mm 0.00 in0.0 mm 0.00 in0.0 mm
05:50 PM 5.4°F-14.8°C -6.5°F-21.4°C 57% Calm Calm 2.0 mph3.2 kmh 30.81 in1043.3 mb 0.00 in0.0 mm 0.00 in0.0 mm 0.00 in0.0 mm
05:54 PM 5.6°F-14.7°C -6.3°F-21.3°C 57% 2.0 mph NW3.2 kmh NW 3.0 mph4.8 kmh 30.81 in1043.3 mb 0.00 in0.0 mm 0.00 in0.0 mm 0.00 in0.0 mm
06:00 PM 5.7°F-14.6°C -6.2°F-21.2°C 57% 1.0 mph WSW1.6 kmh WSW 1.0 mph1.6 kmh 30.81 in1043.3 mb 0.00 in0.0 mm 0.00 in0.0 mm 0.00 in0.0 mm
06:04 PM 5.5°F-14.7°C -6.4°F-21.3°C 57% 1.0 mph NNW1.6 kmh NNW 2.0 mph3.2 kmh 30.81 in1043.3 mb 0.00 in0.0 mm 0.00 in0.0 mm 0.00 in0.0 mm
06:10 PM 5.3°F-14.8°C -6.6°F-21.4°C 57% Calm Calm 2.0 mph3.2 kmh 30.81 in1043.3 mb 0.00 in0.0 mm 0.00 in0.0 mm 0.00 in0.0 mm
06:15 PM 5.1°F-14.9°C -6.4°F-21.3°C 58% Calm Calm -- 30.82 in1043.7 mb 0.00 in0.0 mm 0.00 in0.0 mm 0.00 in0.0 mm
06:20 PM 5.1°F-14.9°C -6.1°F-21.2°C 59% 1.0 mph NNW1.6 kmh NNW 3.0 mph4.8 kmh 30.81 in1043.3 mb 0.00 in0.0 mm 0.00 in0.0 mm 0.00 in0.0 mm
06:24 PM 5.0°F-15.0°C -6.5°F-21.4°C 58% 1.0 mph NNW1.6 kmh NNW 1.0 mph1.6 kmh 30.82 in1043.7 mb 0.00 in0.0 mm 0.00 in0.0 mm 0.00 in0.0 mm
06:30 PM 4.7°F-15.2°C -6.5°F-21.4°C 59% Calm Calm -- 30.82 in1043.7 mb 0.00 in0.0 mm 0.00 in0.0 mm 0.00 in0.0 mm
06:35 PM 4.3°F-15.4°C -6.9°F-21.6°C 59% Calm Calm 2.0 mph3.2 kmh 30.82 in1043.7 mb 0.00 in0.0 mm 0.00 in0.0 mm 0.00 in0.0 mm
06:40 PM 4.0°F-15.6°C -7.1°F-21.7°C 59% 1.0 mph NW1.6 kmh NW 4.0 mph6.4 kmh 30.82 in1043.7 mb 0.00 in0.0 mm 0.00 in0.0 mm 0.00 in0.0 mm
06:44 PM 3.7°F-15.7°C -7.4°F-21.9°C 59% Calm Calm 2.0 mph3.2 kmh 30.82 in1043.7 mb 0.00 in0.0 mm 0.00 in0.0 mm 0.00 in0.0 mm
06:50 PM 3.4°F-15.9°C -7.4°F-21.9°C 60% Calm Calm 1.0 mph1.6 kmh 30.82 in1043.7 mb 0.00 in0.0 mm 0.00 in0.0 mm 0.00 in0.0 mm
06:54 PM 3.2°F-16.0°C -7.5°F-21.9°C 60% 1.0 mph NW1.6 kmh NW 2.0 mph3.2 kmh 30.82 in1043.7 mb 0.00 in0.0 mm 0.00 in0.0 mm 0.00 in0.0 mm
07:00 PM 2.9°F-16.2°C -7.8°F-22.1°C 60% Calm Calm 2.0 mph3.2 kmh 30.82 in1043.7 mb 0.00 in0.0 mm 0.00 in0.0 mm 0.00 in0.0 mm
07:05 PM 2.7°F-16.3°C -8.0°F-22.2°C 60% 1.0 mph NW1.6 kmh NW 2.0 mph3.2 kmh 30.82 in1043.7 mb 0.00 in0.0 mm 0.00 in0.0 mm 0.00 in0.0 mm
07:10 PM 2.5°F-16.4°C -7.9°F-22.2°C 61% 1.0 mph NW1.6 kmh NW 3.0 mph4.8 kmh 30.82 in1043.7 mb 0.00 in0.0 mm 0.00 in0.0 mm 0.00 in0.0 mm
07:15 PM 2.4°F-16.4°C -8.0°F-22.2°C 61% 1.0 mph NW1.6 kmh NW 3.0 mph4.8 kmh 30.82 in1043.7 mb 0.00 in0.0 mm 0.00 in0.0 mm 0.00 in0.0 mm
07:20 PM 2.2°F-16.6°C -8.2°F-22.3°C 61% 2.0 mph NW3.2 kmh NW 3.0 mph4.8 kmh 30.82 in1043.7 mb 0.00 in0.0 mm 0.00 in0.0 mm 0.00 in0.0 mm
07:25 PM 2.0°F-16.7°C -8.3°F-22.4°C 61% 3.0 mph NW4.8 kmh NW 3.0 mph4.8 kmh 30.83 in1044.0 mb 0.00 in0.0 mm 0.00 in0.0 mm 0.00 in0.0 mm
07:30 PM 1.9°F-16.7°C -8.4°F-22.4°C 61% 2.0 mph NW3.2 kmh NW 2.0 mph3.2 kmh 30.83 in1044.0 mb 0.00 in0.0 mm 0.00 in0.0 mm 0.00 in0.0 mm
07:35 PM 1.8°F-16.8°C -8.5°F-22.5°C 61% Calm Calm 2.0 mph3.2 kmh 30.83 in1044.0 mb 0.00 in0.0 mm 0.00 in0.0 mm 0.00 in0.0 mm
07:40 PM 1.6°F-16.9°C -8.7°F-22.6°C 61% Calm Calm 2.0 mph3.2 kmh 30.83 in1044.0 mb 0.00 in0.0 mm 0.00 in0.0 mm 0.00 in0.0 mm
07:45 PM 1.4°F-17.0°C -8.6°F-22.6°C 62% 1.0 mph NW1.6 kmh NW 4.0 mph6.4 kmh 30.83 in1044.0 mb 0.00 in0.0 mm 0.00 in0.0 mm 0.00 in0.0 mm
07:50 PM 1.3°F-17.1°C -8.7°F-22.6°C 62% 1.0 mph NW1.6 kmh NW 1.0 mph1.6 kmh 30.83 in1044.0 mb 0.00 in0.0 mm 0.00 in0.0 mm 0.00 in0.0 mm
07:55 PM 1.1°F-17.2°C -8.9°F-22.7°C 62% Calm Calm 2.0 mph3.2 kmh 30.83 in1044.0 mb 0.00 in0.0 mm 0.00 in0.0 mm 0.00 in0.0 mm
08:00 PM 0.9°F-17.3°C -9.1°F-22.8°C 62% 1.0 mph NW1.6 kmh NW 2.0 mph3.2 kmh 30.83 in1044.0 mb 0.00 in0.0 mm 0.00 in0.0 mm 0.00 in0.0 mm
08:05 PM 0.8°F-17.3°C -9.2°F-22.9°C 62% 1.0 mph NW1.6 kmh NW 2.0 mph3.2 kmh 30.83 in1044.0 mb 0.00 in0.0 mm 0.00 in0.0 mm 0.00 in0.0 mm
08:10 PM 0.6°F-17.4°C -9.0°F-22.8°C 63% 1.0 mph NW1.6 kmh NW 2.0 mph3.2 kmh 30.83 in1044.0 mb 0.00 in0.0 mm 0.00 in0.0 mm 0.00 in0.0 mm
08:15 PM 0.5°F-17.5°C -9.1°F-22.8°C 63% Calm Calm 1.0 mph1.6 kmh 30.83 in1044.0 mb 0.00 in0.0 mm 0.00 in0.0 mm 0.00 in0.0 mm
08:20 PM 0.3°F-17.6°C -9.3°F-22.9°C 63% 1.0 mph NW1.6 kmh NW 1.0 mph1.6 kmh 30.83 in1044.0 mb 0.00 in0.0 mm 0.00 in0.0 mm 0.00 in0.0 mm
08:25 PM 0.2°F-17.7°C -9.1°F-22.8°C 64% Calm Calm 1.0 mph1.6 kmh 30.84 in1044.4 mb 0.00 in0.0 mm 0.00 in0.0 mm 0.00 in0.0 mm
08:30 PM 0.1°F-17.7°C -9.3°F-22.9°C 64% 1.0 mph WNW1.6 kmh WNW 2.0 mph3.2 kmh 30.84 in1044.4 mb 0.00 in0.0 mm 0.00 in0.0 mm 0.00 in0.0 mm
08:35 PM -0.1°F-17.8°C -9.4°F-23.0°C 64% Calm Calm 2.0 mph3.2 kmh 30.84 in1044.4 mb 0.00 in0.0 mm 0.00 in0.0 mm 0.00 in0.0 mm
08:39 PM -0.3°F-17.9°C -9.2°F-22.9°C 65% 1.0 mph WNW1.6 kmh WNW 1.0 mph1.6 kmh 30.83 in1044.0 mb 0.00 in0.0 mm 0.00 in0.0 mm 0.00 in0.0 mm
08:45 PM -0.4°F-18.0°C -9.3°F-22.9°C 65% Calm Calm 2.0 mph3.2 kmh 30.83 in1044.0 mb 0.00 in0.0 mm 0.00 in0.0 mm 0.00 in0.0 mm
08:50 PM -0.5°F-18.1°C -9.4°F-23.0°C 65% 2.0 mph WNW3.2 kmh WNW 2.0 mph3.2 kmh 30.84 in1044.4 mb 0.00 in0.0 mm 0.00 in0.0 mm 0.00 in0.0 mm
08:55 PM -0.7°F-18.2°C -9.6°F-23.1°C 65% Calm Calm 1.0 mph1.6 kmh 30.84 in1044.4 mb 0.00 in0.0 mm 0.00 in0.0 mm 0.00 in0.0 mm
09:00 PM -0.8°F-18.2°C -9.7°F-23.2°C 65% Calm Calm -- 30.84 in1044.4 mb 0.00 in0.0 mm 0.00 in0.0 mm 0.00 in0.0 mm
09:05 PM -0.9°F-18.3°C -9.5°F-23.1°C 66% Calm Calm -- 30.84 in1044.4 mb 0.00 in0.0 mm 0.00 in0.0 mm 0.00 in0.0 mm
09:09 PM -1.0°F-18.3°C -9.6°F-23.1°C 66% Calm Calm -- 30.84 in1044.4 mb 0.00 in0.0 mm 0.00 in0.0 mm 0.00 in0.0 mm
09:15 PM -1.2°F-18.4°C -9.8°F-23.2°C 66% Calm Calm 1.0 mph1.6 kmh 30.84 in1044.4 mb 0.00 in0.0 mm 0.00 in0.0 mm 0.00 in0.0 mm
09:20 PM -1.3°F-18.5°C -9.6°F-23.1°C 67% 1.0 mph WNW1.6 kmh WNW 1.0 mph1.6 kmh 30.84 in1044.4 mb 0.00 in0.0 mm 0.00 in0.0 mm 0.00 in0.0 mm
09:25 PM -1.4°F-18.6°C -9.7°F-23.2°C 67% Calm Calm -- 30.84 in1044.4 mb 0.00 in0.0 mm 0.00 in0.0 mm 0.00 in0.0 mm
09:30 PM -1.6°F-18.7°C -9.9°F-23.3°C 67% Calm Calm 1.0 mph1.6 kmh 30.84 in1044.4 mb 0.00 in0.0 mm 0.00 in0.0 mm 0.00 in0.0 mm
09:35 PM -1.8°F-18.8°C -10.1°F-23.4°C 67% Calm Calm -- 30.84 in1044.4 mb 0.00 in0.0 mm 0.00 in0.0 mm 0.00 in0.0 mm
09:40 PM -1.9°F-18.8°C -9.9°F-23.3°C 68% Calm Calm 2.0 mph3.2 kmh 30.84 in1044.4 mb 0.00 in0.0 mm 0.00 in0.0 mm 0.00 in0.0 mm
09:45 PM -2.1°F-18.9°C -10.1°F-23.4°C 68% Calm Calm 1.0 mph1.6 kmh 30.84 in1044.4 mb 0.00 in0.0 mm 0.00 in0.0 mm 0.00 in0.0 mm
09:50 PM -2.3°F-19.1°C -10.3°F-23.5°C 68% 1.0 mph WNW1.6 kmh WNW 1.0 mph1.6 kmh 30.84 in1044.4 mb 0.00 in0.0 mm 0.00 in0.0 mm 0.00 in0.0 mm
09:55 PM -2.5°F-19.2°C -10.4°F-23.6°C 68% Calm Calm 1.0 mph1.6 kmh 30.84 in1044.4 mb 0.00 in0.0 mm 0.00 in0.0 mm 0.00 in0.0 mm
10:00 PM -2.5°F-19.2°C -10.1°F-23.4°C 69% Calm Calm 1.0 mph1.6 kmh 30.84 in1044.4 mb 0.00 in0.0 mm 0.00 in0.0 mm 0.00 in0.0 mm
10:05 PM -2.7°F-19.3°C -10.3°F-23.5°C 69% Calm Calm 1.0 mph1.6 kmh 30.84 in1044.4 mb 0.00 in0.0 mm 0.00 in0.0 mm 0.00 in0.0 mm
10:10 PM -2.8°F-19.3°C -10.4°F-23.6°C 69% Calm Calm -- 30.84 in1044.4 mb 0.00 in0.0 mm 0.00 in0.0 mm 0.00 in0.0 mm
10:15 PM -3.0°F-19.4°C -10.6°F-23.7°C 69% Calm Calm -- 30.84 in1044.4 mb 0.00 in0.0 mm 0.00 in0.0 mm 0.00 in0.0 mm
10:20 PM -3.1°F-19.5°C -10.7°F-23.7°C 69% Calm Calm 1.0 mph1.6 kmh 30.84 in1044.4 mb 0.00 in0.0 mm 0.00 in0.0 mm 0.00 in0.0 mm
10:25 PM -3.3°F-19.6°C -10.9°F-23.8°C 69% Calm Calm -- 30.84 in1044.4 mb 0.00 in0.0 mm 0.00 in0.0 mm 0.00 in0.0 mm
10:30 PM -3.4°F-19.7°C -10.7°F-23.7°C 70% Calm Calm 2.0 mph3.2 kmh 30.84 in1044.4 mb 0.00 in0.0 mm 0.00 in0.0 mm 0.00 in0.0 mm
10:35 PM -3.5°F-19.7°C -10.8°F-23.8°C 70% Calm Calm 1.0 mph1.6 kmh 30.84 in1044.4 mb 0.00 in0.0 mm 0.00 in0.0 mm 0.00 in0.0 mm
10:40 PM -3.6°F-19.8°C -10.6°F-23.7°C 71% Calm Calm -- 30.84 in1044.4 mb 0.00 in0.0 mm 0.00 in0.0 mm 0.00 in0.0 mm
10:45 PM -3.6°F-19.8°C -10.6°F-23.7°C 71% Calm Calm -- 30.84 in1044.4 mb 0.00 in0.0 mm 0.00 in0.0 mm 0.00 in0.0 mm
10:49 PM -3.8°F-19.9°C -10.8°F-23.8°C 71% Calm Calm 1.0 mph1.6 kmh 30.84 in1044.4 mb 0.00 in0.0 mm 0.00 in0.0 mm 0.00 in0.0 mm
10:55 PM -3.9°F-19.9°C -10.9°F-23.8°C 71% Calm Calm -- 30.84 in1044.4 mb 0.00 in0.0 mm 0.00 in0.0 mm 0.00 in0.0 mm
11:00 PM -4.0°F-20.0°C -11.0°F-23.9°C 71% 1.0 mph WNW1.6 kmh WNW 2.0 mph3.2 kmh 30.84 in1044.4 mb 0.00 in0.0 mm 0.00 in0.0 mm 0.00 in0.0 mm
11:04 PM -4.1°F-20.1°C -10.8°F-23.8°C 72% Calm Calm 1.0 mph1.6 kmh 30.84 in1044.4 mb 0.00 in0.0 mm 0.00 in0.0 mm 0.00 in0.0 mm
11:10 PM -4.1°F-20.1°C -10.8°F-23.8°C 72% 1.0 mph WNW1.6 kmh WNW 1.0 mph1.6 kmh 30.84 in1044.4 mb 0.00 in0.0 mm 0.00 in0.0 mm 0.00 in0.0 mm
11:15 PM -4.3°F-20.2°C -11.0°F-23.9°C 72% Calm Calm -- 30.84 in1044.4 mb 0.00 in0.0 mm 0.00 in0.0 mm 0.00 in0.0 mm
11:20 PM -4.3°F-20.2°C -11.0°F-23.9°C 72% Calm Calm -- 30.84 in1044.4 mb 0.00 in0.0 mm 0.00 in0.0 mm 0.00 in0.0 mm
11:25 PM -4.4°F-20.2°C -11.1°F-23.9°C 72% Calm Calm -- 30.84 in1044.4 mb 0.00 in0.0 mm 0.00 in0.0 mm 0.00 in0.0 mm
11:30 PM -4.6°F-20.3°C -11.3°F-24.1°C 72% Calm Calm 1.0 mph1.6 kmh 30.84 in1044.4 mb 0.00 in0.0 mm 0.00 in0.0 mm 0.00 in0.0 mm
11:34 PM -4.6°F-20.3°C -11.3°F-24.1°C 72% Calm Calm -- 30.85 in1044.7 mb 0.00 in0.0 mm 0.00 in0.0 mm 0.00 in0.0 mm
11:39 PM -4.7°F-20.4°C -11.1°F-23.9°C 73% Calm Calm 1.0 mph1.6 kmh 30.85 in1044.7 mb 0.00 in0.0 mm 0.00 in0.0 mm 0.00 in0.0 mm
11:45 PM -4.8°F-20.4°C -11.2°F-24.0°C 73% Calm Calm -- 30.85 in1044.7 mb 0.00 in0.0 mm 0.00 in0.0 mm 0.00 in0.0 mm
11:50 PM -4.9°F-20.5°C -11.3°F-24.1°C 73% Calm Calm -- 30.85 in1044.7 mb 0.00 in0.0 mm 0.00 in0.0 mm 0.00 in0.0 mm
11:54 PM -4.9°F-20.5°C -11.3°F-24.1°C 73% Calm Calm -- 30.85 in1044.7 mb 0.00 in0.0 mm 0.00 in0.0 mm 0.00 in0.0 mm